createdAt,value
2023-05-17T00:00:59.690Z,6.30
2023-05-17T00:06:01.778Z,7.85
2023-05-17T00:11:05.149Z,6.20
2023-05-17T00:16:08.275Z,8.40
2023-05-17T00:21:10.301Z,5.35
2023-05-17T00:26:13.951Z,7.95
2023-05-17T00:31:16.052Z,8.77
2023-05-17T00:36:18.016Z,7.55
2023-05-17T00:41:21.359Z,8.07
2023-05-17T00:46:23.348Z,7.70
2023-05-17T00:51:25.598Z,6.97
2023-05-17T00:56:29.266Z,7.03
2023-05-17T01:01:31.906Z,6.82
2023-05-17T01:06:34.336Z,5.70
2023-05-17T01:11:48.502Z,5.72
2023-05-17T01:16:56.257Z,6.38
2023-05-17T01:22:10.679Z,6.65
2023-05-17T01:27:16.576Z,6.07
2023-05-17T01:32:19.722Z,5.40
2023-05-17T01:37:21.760Z,5.93
2023-05-17T01:42:31.026Z,6.38
2023-05-17T01:47:39.727Z,6.43
2023-05-17T01:52:48.282Z,3.35
2023-05-17T01:57:54.255Z,3.70
2023-05-17T02:02:56.341Z,5.00
2023-05-17T02:07:58.393Z,5.80
2023-05-17T02:13:01.843Z,5.85
2023-05-17T02:18:04.230Z,7.13
2023-05-17T02:23:06.501Z,4.03
2023-05-17T02:28:09.835Z,6.03
2023-05-17T02:33:11.989Z,5.60
2023-05-17T02:38:14.050Z,7.03
2023-05-17T02:43:17.388Z,5.78
2023-05-17T02:48:19.565Z,6.28
2023-05-17T02:53:21.619Z,4.32
2023-05-17T02:58:25.162Z,6.00
2023-05-17T03:03:27.401Z,7.55
2023-05-17T03:08:29.601Z,6.15
2023-05-17T03:13:33.012Z,6.07
2023-05-17T03:18:35.973Z,6.60
2023-05-17T03:23:38.117Z,5.15
2023-05-17T03:28:41.478Z,6.32
2023-05-17T03:33:43.702Z,7.15
2023-05-17T03:38:46.038Z,4.78
2023-05-17T03:43:49.405Z,6.35
2023-05-17T03:48:51.729Z,6.13
2023-05-17T03:53:58.459Z,5.88
2023-05-17T03:59:01.803Z,5.50
2023-05-17T04:04:04.474Z,4.05
2023-05-17T04:09:07.413Z,4.13
2023-05-17T04:14:10.902Z,4.05
2023-05-17T04:19:13.013Z,3.67
2023-05-17T04:24:15.081Z,3.33
2023-05-17T04:29:18.428Z,4.32
2023-05-17T04:34:22.274Z,4.60
2023-05-17T04:39:24.731Z,4.45
2023-05-17T04:44:28.219Z,3.28
2023-05-17T04:49:30.250Z,2.97
2023-05-17T04:54:32.225Z,3.28
2023-05-17T04:59:35.541Z,2.85
2023-05-17T05:04:37.701Z,3.05
2023-05-17T05:09:39.752Z,3.08
2023-05-17T05:14:43.195Z,2.10
2023-05-17T05:19:45.681Z,4.82
2023-05-17T05:24:47.691Z,4.82
2023-05-17T05:29:53.169Z,3.03
2023-05-17T05:34:55.302Z,3.40
2023-05-17T05:39:57.444Z,4.43
2023-05-17T05:45:00.956Z,4.57
2023-05-17T05:50:03.317Z,4.00
2023-05-17T05:55:06.343Z,3.60
2023-05-17T06:05:13.982Z,2.33
2023-05-17T06:10:16.187Z,1.90
2023-05-17T06:15:19.599Z,2.97
2023-05-17T06:20:21.612Z,3.72
2023-05-17T06:25:23.678Z,4.03
2023-05-17T06:30:27.648Z,4.03
2023-05-17T06:35:33.194Z,4.20
2023-05-17T06:40:42.857Z,2.83
2023-05-17T06:45:46.555Z,4.30
2023-05-17T06:50:48.712Z,5.82
2023-05-17T06:55:50.757Z,3.53
2023-05-17T07:00:54.096Z,4.28
2023-05-17T07:05:56.213Z,4.45
2023-05-17T07:10:58.297Z,4.50
2023-05-17T07:16:01.701Z,2.95
2023-05-17T07:21:04.101Z,4.35
2023-05-17T07:26:06.146Z,5.22
2023-05-17T07:31:09.520Z,4.20
2023-05-17T07:36:11.740Z,4.97
2023-05-17T07:41:16.880Z,4.47
2023-05-17T07:46:20.310Z,4.35
2023-05-17T07:51:22.342Z,5.22
2023-05-17T07:56:24.378Z,4.60
2023-05-17T08:01:27.871Z,5.47
2023-05-17T08:06:29.891Z,3.53
2023-05-17T08:11:35.135Z,4.35
2023-05-17T08:16:38.651Z,4.82
2023-05-17T08:21:41.190Z,6.05
2023-05-17T08:26:43.175Z,6.35
2023-05-17T08:31:46.557Z,6.32
2023-05-17T08:36:48.701Z,6.00
2023-05-17T08:41:50.767Z,6.25
2023-05-17T08:46:56.321Z,4.60
2023-05-17T08:52:00.810Z,5.15
2023-05-17T08:57:06.755Z,7.25
2023-05-17T09:02:10.267Z,4.80
2023-05-17T09:07:12.359Z,5.20
2023-05-17T09:12:14.377Z,3.38
2023-05-17T09:17:19.630Z,4.18
2023-05-17T09:22:22.254Z,4.82
2023-05-17T09:27:24.244Z,4.88
2023-05-17T09:32:28.604Z,4.93
2023-05-17T09:37:30.890Z,4.50
2023-05-17T09:42:37.220Z,2.97
2023-05-17T09:47:40.701Z,3.83
2023-05-17T09:52:42.788Z,5.00
2023-05-17T09:57:44.849Z,3.78
2023-05-17T10:02:50.088Z,6.90
2023-05-17T10:07:56.349Z,3.80
2023-05-17T10:13:00.733Z,7.50
2023-05-17T10:18:06.561Z,7.65
2023-05-17T10:23:08.691Z,7.28
2023-05-17T10:28:12.707Z,8.10
2023-05-17T10:33:18.626Z,6.93
2023-05-17T10:38:24.000Z,6.43
2023-05-17T10:43:30.463Z,6.15
2023-05-17T10:48:34.951Z,5.90
2023-05-17T10:54:04.353Z,6.18
2023-05-17T10:59:17.746Z,5.05
2023-05-17T11:04:26.695Z,3.28
2023-05-17T11:09:32.284Z,5.70
2023-05-17T11:14:47.317Z,5.57
2023-05-17T11:19:58.478Z,7.88
2023-05-17T11:25:05.604Z,8.90
2023-05-17T11:30:10.497Z,10.10
2023-05-17T11:35:14.634Z,9.85
2023-05-17T11:40:25.362Z,8.23
2023-05-17T11:45:28.104Z,12.10
2023-05-17T11:50:31.786Z,7.38
2023-05-17T11:55:37.676Z,9.27
2023-05-17T12:00:42.081Z,8.85
2023-05-17T12:05:46.561Z,8.02
2023-05-17T12:10:50.521Z,9.00
2023-05-17T12:15:56.274Z,13.80
2023-05-17T12:21:00.298Z,10.90
2023-05-17T12:26:07.387Z,6.88
2023-05-17T12:31:12.045Z,9.05
2023-05-17T12:36:16.244Z,7.75
2023-05-17T12:41:18.777Z,6.18
2023-05-17T12:46:23.006Z,10.02
2023-05-17T12:51:26.341Z,8.90
2023-05-17T12:56:29.337Z,11.43
2023-05-17T13:01:33.648Z,9.80
2023-05-17T13:06:47.861Z,5.40
2023-05-17T13:11:54.533Z,9.93
2023-05-17T13:16:56.579Z,15.45
2023-05-17T13:21:59.991Z,10.43
2023-05-17T13:27:02.392Z,8.50
2023-05-17T13:32:05.674Z,5.10
2023-05-17T13:42:14.618Z,3.53
2023-05-17T13:47:16.624Z,5.70
2023-05-17T13:52:20.139Z,8.65
2023-05-17T13:57:22.291Z,5.05
2023-05-17T14:02:24.319Z,6.05
2023-05-17T14:07:27.761Z,6.20
2023-05-17T14:17:33.074Z,4.97
2023-05-17T14:22:36.526Z,4.05
2023-05-17T14:27:38.533Z,6.07
2023-05-17T14:32:40.645Z,5.68
2023-05-17T14:37:44.344Z,6.15
2023-05-17T14:42:46.589Z,6.93
2023-05-17T14:47:48.709Z,5.05
2023-05-17T14:52:52.161Z,5.95
2023-05-17T14:57:54.854Z,5.53
2023-05-17T15:02:57.053Z,5.28
2023-05-17T15:08:00.582Z,4.93
2023-05-17T15:13:02.647Z,5.53
2023-05-17T15:18:05.376Z,5.30
2023-05-17T15:23:08.789Z,4.82
2023-05-17T15:28:10.856Z,4.63
2023-05-17T15:33:13.153Z,4.28
2023-05-17T15:38:17.053Z,3.90
2023-05-17T15:43:19.112Z,4.30
2023-05-17T15:48:23.466Z,5.82
2023-05-17T15:53:28.533Z,5.50
2023-05-17T15:58:33.430Z,5.55
2023-05-17T16:03:35.677Z,4.50
